createdAt,value
2018-09-25T00:12:54.507Z,9.20
2018-09-25T00:15:32.720Z,8.80
2018-09-25T00:18:09.954Z,8.20
2018-09-25T00:20:45.613Z,7.90
2018-09-25T00:23:23.970Z,7.90
2018-09-25T00:26:00.803Z,7.70
2018-09-25T00:28:38.273Z,7.60
2018-09-25T00:31:14.223Z,7.40
2018-09-25T00:34:09.832Z,7.50
2018-09-25T00:36:45.255Z,7.30
2018-09-25T00:39:21.157Z,7.30
2018-09-25T00:41:56.749Z,7.20
2018-09-25T00:44:33.209Z,7.00
2018-09-25T00:47:10.305Z,7.00
2018-09-25T00:49:45.857Z,7.00
2018-09-25T00:52:21.808Z,7.00
2018-09-25T00:54:57.892Z,6.80
2018-09-25T00:57:33.579Z,6.80
2018-09-25T01:00:11.707Z,6.80
2018-09-25T01:02:51.506Z,6.50
2018-09-25T01:05:28.186Z,6.50
2018-09-25T01:08:05.099Z,6.30
2018-09-25T01:10:44.097Z,6.20
2018-09-25T01:13:19.884Z,6.30
2018-09-25T01:15:55.453Z,6.60
2018-09-25T01:18:31.203Z,6.30
2018-09-25T01:21:07.248Z,6.40
2018-09-25T01:23:43.606Z,6.10
2018-09-25T01:26:19.083Z,6.30
2018-09-25T01:28:57.142Z,6.30
2018-09-25T01:31:34.202Z,6.50
2018-09-25T01:34:10.490Z,6.20
2018-09-25T01:36:48.149Z,6.40
2018-09-25T01:39:26.205Z,6.40
2018-09-25T01:42:06.672Z,6.60
2018-09-25T01:44:42.528Z,6.40
2018-09-25T01:47:19.129Z,6.50
2018-09-25T01:50:00.711Z,6.60
2018-09-25T01:52:38.165Z,6.50
2018-09-25T01:55:14.162Z,6.60
2018-09-25T01:57:52.217Z,6.60
2018-09-25T02:00:32.050Z,6.70
2018-09-25T02:03:10.502Z,6.60
2018-09-25T02:05:50.492Z,6.50
2018-09-25T02:08:33.060Z,6.40
2018-09-25T02:11:09.002Z,6.40
2018-09-25T02:13:44.585Z,6.40
2018-09-25T02:16:20.101Z,6.30
2018-09-25T02:18:55.769Z,6.60
2018-09-25T02:21:31.222Z,6.50
2018-09-25T03:17:48.118Z,5.40
2018-09-25T03:20:23.901Z,5.60
2018-09-25T03:22:59.404Z,5.30
2018-09-25T03:25:35.220Z,5.50
2018-09-25T03:28:11.202Z,5.60
2018-09-25T03:30:46.789Z,5.60
2018-09-25T03:33:22.273Z,5.70
2018-09-25T03:35:57.836Z,5.70
2018-09-25T03:38:33.746Z,5.70
2018-09-25T03:41:10.058Z,5.70
2018-09-25T03:43:45.559Z,5.80
2018-09-25T03:46:22.250Z,5.80
2018-09-25T03:48:57.901Z,5.60
2018-09-25T03:51:33.300Z,5.80
2018-09-25T03:54:09.024Z,5.60
2018-09-25T03:56:44.528Z,5.70
2018-09-25T03:59:20.001Z,5.70
2018-09-25T04:01:55.579Z,5.50
2018-09-25T04:04:31.181Z,5.60
2018-09-25T04:07:06.666Z,5.50
2018-09-25T04:09:42.207Z,5.50
2018-09-25T04:12:17.682Z,5.40
2018-09-25T04:14:53.186Z,5.40
2018-09-25T04:17:28.822Z,5.40
2018-09-25T04:20:04.375Z,5.50
2018-09-25T04:22:40.376Z,5.30
2018-09-25T04:25:15.919Z,5.70
2018-09-25T04:27:51.459Z,5.50
2018-09-25T04:30:27.087Z,5.50
2018-09-25T04:33:02.489Z,5.40
2018-09-25T04:35:38.116Z,5.30
2018-09-25T04:38:13.827Z,5.40
2018-09-25T04:40:49.512Z,5.60
2018-09-25T04:43:25.059Z,5.20
2018-09-25T04:46:01.002Z,5.40
2018-09-25T04:48:36.703Z,5.40
2018-09-25T04:51:12.229Z,5.30
2018-09-25T04:53:47.822Z,5.30
2018-09-25T04:56:26.181Z,5.20
2018-09-25T04:59:04.196Z,5.30
2018-09-25T05:01:41.746Z,5.00
2018-09-25T05:04:17.782Z,5.20
2018-09-25T05:06:53.416Z,5.10
2018-09-25T05:09:29.041Z,5.00
2018-09-25T05:12:04.911Z,5.10
2018-09-25T05:14:40.274Z,5.00
2018-09-25T05:17:15.825Z,5.10
2018-09-25T05:19:51.299Z,5.00
2018-09-25T05:22:26.727Z,4.90
2018-09-25T05:25:02.250Z,4.80
2018-09-25T05:27:38.377Z,4.80
2018-09-25T05:30:14.083Z,4.70
2018-09-25T05:32:49.564Z,4.80
2018-09-25T05:35:25.171Z,4.90
2018-09-25T05:38:01.371Z,5.00
2018-09-25T05:40:36.992Z,5.10
2018-09-25T05:43:12.957Z,5.10
2018-09-25T05:45:48.469Z,5.20
2018-09-25T05:48:24.410Z,5.00
2018-09-25T05:50:59.876Z,5.10
2018-09-25T05:53:35.473Z,5.10
2018-09-25T05:56:11.112Z,5.30
2018-09-25T05:58:46.430Z,5.40
2018-09-25T06:01:22.363Z,5.40
2018-09-25T06:03:57.754Z,5.60
2018-09-25T06:06:33.212Z,5.60
2018-09-25T06:09:08.786Z,5.80
2018-09-25T06:11:44.310Z,5.90
2018-09-25T06:14:19.742Z,5.80
2018-09-25T06:16:55.302Z,5.90
2018-09-25T06:19:30.995Z,6.20
2018-09-25T06:22:06.666Z,6.10
2018-09-25T06:24:42.294Z,6.40
2018-09-25T06:27:17.806Z,6.60
2018-09-25T06:29:53.388Z,6.70
2018-09-25T06:32:28.918Z,6.60
2018-09-25T06:35:04.470Z,6.70
2018-09-25T06:37:40.015Z,7.30
2018-09-25T06:40:15.555Z,7.30
2018-09-25T06:42:51.178Z,7.40
2018-09-25T06:45:26.747Z,7.60
2018-09-25T06:48:02.472Z,7.50
2018-09-25T06:50:37.998Z,7.90
2018-09-25T06:53:13.650Z,8.10
2018-09-25T06:55:49.003Z,8.10
2018-09-25T06:58:24.453Z,8.40
2018-09-25T07:00:59.945Z,8.80
2018-09-25T07:03:35.306Z,9.00
2018-09-25T07:06:10.868Z,9.00
2018-09-25T07:08:46.418Z,9.40
2018-09-25T07:11:21.910Z,9.70
2018-09-25T07:13:57.436Z,9.70
2018-09-25T07:16:32.988Z,9.90
2018-09-25T07:19:08.513Z,10.00
2018-09-25T07:21:44.038Z,10.60
2018-09-25T07:24:19.645Z,10.90
2018-09-25T07:26:55.026Z,11.00
2018-09-25T07:29:34.192Z,11.00
2018-09-25T07:32:09.610Z,11.40
2018-09-25T07:34:45.162Z,11.60
2018-09-25T07:37:20.636Z,12.20
2018-09-25T07:39:56.205Z,12.20
2018-09-25T07:42:33.674Z,12.30
2018-09-25T07:45:09.366Z,12.60
2018-09-25T07:47:46.386Z,12.50
2018-09-25T07:50:23.666Z,12.90
2018-09-25T07:52:59.317Z,13.20
2018-09-25T07:55:35.115Z,13.30
2018-09-25T07:58:10.662Z,13.40
2018-09-25T08:00:46.119Z,13.50
2018-09-25T08:03:21.700Z,13.80
2018-09-25T08:05:57.410Z,13.70
2018-09-25T08:08:36.424Z,13.90
2018-09-25T08:11:12.904Z,14.20
2018-09-25T08:13:48.397Z,14.50
2018-09-25T08:16:23.974Z,14.90
2018-09-25T08:18:59.539Z,15.70
2018-09-25T08:21:35.099Z,15.50
2018-09-25T08:24:10.608Z,15.80
2018-09-25T08:26:46.031Z,15.30
2018-09-25T08:29:21.581Z,15.30
2018-09-25T08:31:57.060Z,15.30
2018-09-25T08:34:32.646Z,15.60
2018-09-25T08:37:08.080Z,15.50
2018-09-25T08:39:44.359Z,15.80
2018-09-25T08:42:19.724Z,15.70
2018-09-25T08:44:55.161Z,16.20
2018-09-25T08:47:30.717Z,16.90
2018-09-25T08:50:06.253Z,17.30
2018-09-25T08:52:41.635Z,17.40
2018-09-25T08:55:17.069Z,18.00
2018-09-25T08:57:52.583Z,18.70
2018-09-25T09:00:28.138Z,18.50
2018-09-25T09:03:03.699Z,19.50
2018-09-25T09:05:39.069Z,19.50
2018-09-25T09:08:14.555Z,19.70
2018-09-25T09:10:50.118Z,20.30
2018-09-25T09:13:25.549Z,20.10
2018-09-25T09:16:01.049Z,20.20
2018-09-25T09:18:36.590Z,20.20
2018-09-25T09:21:12.150Z,20.60
2018-09-25T09:23:47.491Z,20.70
2018-09-25T09:26:22.866Z,20.50
2018-09-25T09:28:58.319Z,21.30
2018-09-25T09:31:33.898Z,21.60
2018-09-25T09:34:09.302Z,22.30
2018-09-25T09:36:44.786Z,21.80
2018-09-25T09:39:20.421Z,21.70
2018-09-25T09:41:56.145Z,21.90
2018-09-25T09:44:31.671Z,22.60
2018-09-25T09:47:07.334Z,22.50
2018-09-25T09:49:42.790Z,22.10
2018-09-25T09:52:18.250Z,22.30
2018-09-25T09:54:54.031Z,23.10
2018-09-25T09:57:29.550Z,22.80
2018-09-25T10:00:05.067Z,22.70
2018-09-25T10:02:40.561Z,21.80
2018-09-25T10:05:16.095Z,21.70
2018-09-25T10:07:51.434Z,21.80
2018-09-25T10:10:26.970Z,22.50
2018-09-25T10:13:02.515Z,23.60
2018-09-25T10:15:38.087Z,22.70
2018-09-25T10:18:13.690Z,22.90
2018-09-25T10:20:49.136Z,23.30
2018-09-25T10:23:24.760Z,24.40
2018-09-25T10:26:00.367Z,24.60
2018-09-25T10:28:35.725Z,24.40
2018-09-25T10:31:11.359Z,23.90
2018-09-25T10:33:46.802Z,24.00
2018-09-25T10:36:22.239Z,24.70
2018-09-25T10:38:57.861Z,23.50
2018-09-25T10:41:33.521Z,24.10
2018-09-25T10:44:11.578Z,24.00
2018-09-25T10:46:47.248Z,24.40
2018-09-25T10:49:22.989Z,23.70
2018-09-25T10:52:00.117Z,24.20
2018-09-25T10:54:35.646Z,23.50
2018-09-25T10:57:11.408Z,23.00
2018-09-25T10:59:46.894Z,23.00
2018-09-25T11:02:22.298Z,22.80
2018-09-25T11:04:58.650Z,24.00
2018-09-25T11:07:37.214Z,24.60
2018-09-25T11:10:13.191Z,24.60
2018-09-25T11:12:58.439Z,24.10
2018-09-25T11:15:37.888Z,24.30
2018-09-25T11:18:13.299Z,24.00
2018-09-25T11:20:48.746Z,24.30
2018-09-25T11:23:24.483Z,25.40
2018-09-25T11:26:00.268Z,25.10
2018-09-25T11:28:35.975Z,26.00
2018-09-25T11:31:11.565Z,24.60
2018-09-25T11:33:47.054Z,24.10
2018-09-25T11:36:22.610Z,24.90
2018-09-25T11:38:58.210Z,25.10
2018-09-25T11:41:33.730Z,24.40
2018-09-25T11:44:11.257Z,25.40
2018-09-25T11:46:47.289Z,25.40
2018-09-25T11:49:22.743Z,25.90
2018-09-25T11:51:58.092Z,26.40
2018-09-25T11:54:41.843Z,25.50
2018-09-25T11:57:17.505Z,25.80
2018-09-25T11:59:54.359Z,25.90
2018-09-25T12:02:31.767Z,25.10
2018-09-25T12:05:11.213Z,25.40
2018-09-25T12:07:47.607Z,26.40
2018-09-25T12:10:25.264Z,26.40
2018-09-25T12:13:02.572Z,26.90
2018-09-25T12:15:38.302Z,26.20
2018-09-25T12:18:13.709Z,27.90
2018-09-25T12:20:49.278Z,28.70
2018-09-25T12:23:25.123Z,28.20
2018-09-25T12:26:00.613Z,28.60
2018-09-25T12:28:36.107Z,28.40
2018-09-25T12:31:11.846Z,28.40
2018-09-25T12:33:47.517Z,29.20
2018-09-25T12:36:23.083Z,29.60
2018-09-25T12:38:58.722Z,29.90
2018-09-25T12:41:34.281Z,29.80
2018-09-25T12:44:09.920Z,29.80
2018-09-25T12:46:45.369Z,29.70
2018-09-25T12:49:20.679Z,29.60
2018-09-25T12:51:56.230Z,30.20
2018-09-25T12:54:31.776Z,30.60
2018-09-25T12:57:07.524Z,30.30
2018-09-25T12:59:42.997Z,30.10
2018-09-25T13:02:18.414Z,30.20
2018-09-25T13:04:53.909Z,30.70
2018-09-25T13:07:29.468Z,30.60
2018-09-25T13:10:06.400Z,30.50
2018-09-25T13:12:41.914Z,31.20
2018-09-25T13:15:17.393Z,30.90
2018-09-25T13:17:54.966Z,30.90
2018-09-25T13:20:30.677Z,30.70
2018-09-25T13:23:06.120Z,31.30
2018-09-25T13:25:42.229Z,30.60
2018-09-25T13:28:21.325Z,31.40
2018-09-25T13:30:56.983Z,30.90
2018-09-25T13:33:32.362Z,31.60
2018-09-25T13:36:08.114Z,31.30
2018-09-25T13:38:43.619Z,32.10
2018-09-25T13:41:22.906Z,31.60
2018-09-25T13:43:58.998Z,30.60
2018-09-25T13:46:34.596Z,31.00
2018-09-25T13:49:10.050Z,31.00
2018-09-25T13:51:46.070Z,30.60
2018-09-25T13:54:27.882Z,29.80
2018-09-25T13:57:03.316Z,29.30
2018-09-25T13:59:39.534Z,29.20
2018-09-25T14:02:23.816Z,29.70
2018-09-25T14:05:04.075Z,29.50
2018-09-25T14:07:51.170Z,30.50
2018-09-25T14:10:36.856Z,29.30
2018-09-25T14:13:13.649Z,28.60
2018-09-25T14:15:49.608Z,29.20
2018-09-25T14:18:25.459Z,30.30
2018-09-25T14:21:02.714Z,30.70
2018-09-25T14:23:39.616Z,30.20
2018-09-25T14:26:16.077Z,29.80
2018-09-25T14:28:55.217Z,29.70
2018-09-25T14:31:31.423Z,29.70
2018-09-25T14:34:09.173Z,29.00
2018-09-25T14:36:44.928Z,29.80
2018-09-25T14:39:21.235Z,29.60
2018-09-25T14:41:57.351Z,29.90
2018-09-25T14:44:33.636Z,29.70
2018-09-25T14:47:09.114Z,29.70
2018-09-25T14:49:44.930Z,29.00
2018-09-25T14:52:20.453Z,29.40
2018-09-25T14:54:55.949Z,29.40
2018-09-25T14:57:31.395Z,28.40
2018-09-25T15:00:06.994Z,28.60
2018-09-25T15:02:42.634Z,28.50
2018-09-25T15:05:18.032Z,28.40
2018-09-25T15:07:53.663Z,27.90
2018-09-25T15:10:29.135Z,27.20
2018-09-25T15:13:04.658Z,27.00
2018-09-25T15:15:47.258Z,26.20
2018-09-25T15:18:28.659Z,25.30
2018-09-25T15:21:04.402Z,24.70
2018-09-25T15:23:40.495Z,23.90
2018-09-25T15:26:34.586Z,22.60
2018-09-25T15:29:11.939Z,21.80
2018-09-25T15:31:57.208Z,21.30
2018-09-25T15:34:56.186Z,20.90
2018-09-25T15:37:34.046Z,20.80
2018-09-25T15:40:10.345Z,20.30
2018-09-25T15:42:47.558Z,21.20
2018-09-25T15:45:24.177Z,21.00
2018-09-25T15:48:00.351Z,20.50
2018-09-25T15:50:36.007Z,20.00
2018-09-25T15:53:12.608Z,19.40
2018-09-25T15:55:52.508Z,19.70
2018-09-25T15:58:29.267Z,19.40
2018-09-25T16:01:06.888Z,19.20
2018-09-25T16:03:42.554Z,19.10
2018-09-25T16:06:19.971Z,18.90
2018-09-25T16:08:57.988Z,18.40
2018-09-25T16:11:34.271Z,18.60
2018-09-25T16:14:09.721Z,18.10
2018-09-25T16:16:45.182Z,18.00
2018-09-25T16:19:20.599Z,17.60
2018-09-25T16:21:56.378Z,16.90
2018-09-25T16:24:33.428Z,16.90
2018-09-25T16:27:09.107Z,16.70
2018-09-25T16:29:46.165Z,16.20
2018-09-25T16:32:22.333Z,15.90
2018-09-25T16:34:58.408Z,15.30
2018-09-25T16:37:34.654Z,14.90
2018-09-25T16:40:10.528Z,15.00
2018-09-25T16:42:47.733Z,14.60
2018-09-25T16:45:23.555Z,14.30
2018-09-25T16:47:58.972Z,14.40
2018-09-25T16:50:34.502Z,14.30
2018-09-25T16:53:13.162Z,14.00
2018-09-25T16:58:38.004Z,14.40
2018-09-25T17:01:14.053Z,14.40
2018-09-25T17:03:49.549Z,14.00
2018-09-25T17:06:25.067Z,14.10
2018-09-25T17:09:13.172Z,14.10
2018-09-25T17:11:49.134Z,13.70
2018-09-25T17:14:25.323Z,13.50
2018-09-25T17:17:00.872Z,13.20
2018-09-25T17:19:36.284Z,13.10
2018-09-25T17:22:12.127Z,12.90
2018-09-25T17:24:47.672Z,12.50
2018-09-25T17:27:30.032Z,12.60
2018-09-25T17:30:06.934Z,12.20
2018-09-25T17:32:43.134Z,11.90
2018-09-25T17:35:21.319Z,11.70
2018-09-25T17:37:58.867Z,11.50
2018-09-25T17:40:34.708Z,11.60
2018-09-25T17:43:14.987Z,11.30
2018-09-25T17:45:50.946Z,11.30
2018-09-25T17:48:26.794Z,11.20
2018-09-25T17:51:02.707Z,11.00
2018-09-25T17:53:40.356Z,10.80
2018-09-25T17:56:16.354Z,10.50
2018-09-25T17:58:52.050Z,10.30
2018-09-25T18:01:31.536Z,10.20
2018-09-25T18:06:59.180Z,10.10
2018-09-25T18:09:36.223Z,10.00
2018-09-25T18:12:20.239Z,10.00
2018-09-25T18:15:16.689Z,9.80
2018-09-25T18:18:08.380Z,9.80
2018-09-25T18:21:01.112Z,9.80
2018-09-25T18:23:39.202Z,9.70
2018-09-25T18:26:19.309Z,9.50
2018-09-25T18:28:57.178Z,9.50
2018-09-25T18:31:33.006Z,9.20
2018-09-25T18:34:08.952Z,9.30
2018-09-25T18:36:45.623Z,9.30
2018-09-25T18:39:21.570Z,9.10
2018-09-25T18:41:57.725Z,9.20
2018-09-25T18:44:36.271Z,9.10
2018-09-25T18:47:13.365Z,8.90
2018-09-25T18:49:49.454Z,8.80
2018-09-25T18:52:25.807Z,8.70
2018-09-25T18:55:01.523Z,8.60
2018-09-25T18:57:37.872Z,8.40
2018-09-25T19:00:14.780Z,8.40
2018-09-25T19:02:50.586Z,8.30
2018-09-25T19:05:31.797Z,8.30
2018-09-25T19:08:07.727Z,8.20
2018-09-25T19:10:47.364Z,8.20
2018-09-25T19:13:23.854Z,8.10
2018-09-25T19:15:59.966Z,8.20
2018-09-25T19:18:37.280Z,7.90
2018-09-25T19:21:15.604Z,8.00
2018-09-25T19:23:51.810Z,7.90
2018-09-25T19:26:27.615Z,8.20
2018-09-25T19:29:03.222Z,7.90
2018-09-25T19:31:39.803Z,7.70
2018-09-25T19:34:17.952Z,7.80
2018-09-25T19:36:53.670Z,7.60
2018-09-25T19:39:29.931Z,7.60
2018-09-25T19:42:05.946Z,7.50
2018-09-25T19:44:41.752Z,7.30
2018-09-25T19:47:17.298Z,7.40
2018-09-25T19:49:53.663Z,7.30
2018-09-25T19:52:30.333Z,7.20
2018-09-25T19:55:06.395Z,7.20
2018-09-25T19:57:42.434Z,7.20
2018-09-25T20:00:22.042Z,7.00
2018-09-25T20:02:57.562Z,6.90
2018-09-25T20:05:33.268Z,7.00
2018-09-25T20:08:08.896Z,7.10
2018-09-25T20:10:45.872Z,7.10
2018-09-25T20:13:21.543Z,7.20
2018-09-25T20:15:57.241Z,7.20
2018-09-25T20:18:32.846Z,7.10
2018-09-25T20:21:08.782Z,7.10
2018-09-25T20:23:45.104Z,7.00
2018-09-25T20:26:26.799Z,7.10
2018-09-25T20:29:10.721Z,7.00
2018-09-25T20:31:46.273Z,7.20
2018-09-25T20:34:21.858Z,7.20
2018-09-25T20:36:58.439Z,6.90
2018-09-25T20:39:35.459Z,7.00
2018-09-25T20:42:11.466Z,7.00
2018-09-25T20:44:47.148Z,6.80
2018-09-25T20:47:23.260Z,6.70
2018-09-25T20:50:02.713Z,6.80
2018-09-25T20:52:39.240Z,6.90
2018-09-25T20:55:16.318Z,6.90
2018-09-25T20:57:54.434Z,6.60
2018-09-25T21:00:30.777Z,6.50
2018-09-25T21:03:06.821Z,6.40
2018-09-25T21:05:45.441Z,6.40
2018-09-25T21:08:22.418Z,6.40
2018-09-25T21:10:59.553Z,6.40
2018-09-25T21:13:35.481Z,6.40
2018-09-25T21:16:13.008Z,6.30
2018-09-25T21:18:48.896Z,6.40
2018-09-25T21:21:25.067Z,6.40
2018-09-25T21:24:00.934Z,6.30
2018-09-25T21:26:36.651Z,6.40
2018-09-25T21:29:13.174Z,6.40
2018-09-25T21:31:51.227Z,6.40
2018-09-25T21:34:27.303Z,6.40
2018-09-25T21:37:03.205Z,6.30
2018-09-25T21:39:39.119Z,6.30
2018-09-25T21:42:15.267Z,6.10
2018-09-25T21:44:51.497Z,6.10
2018-09-25T21:47:27.562Z,6.20
2018-09-25T21:50:03.916Z,6.30
2018-09-25T21:52:41.681Z,6.30
2018-09-25T21:55:18.969Z,6.40
2018-09-25T21:57:55.726Z,6.10
2018-09-25T22:00:31.301Z,6.00
2018-09-25T22:03:07.635Z,6.00
2018-09-25T22:05:43.265Z,6.10
2018-09-25T22:08:20.269Z,6.10
2018-09-25T22:10:56.134Z,6.10
2018-09-25T22:13:31.676Z,6.10
2018-09-25T22:16:07.405Z,5.90
2018-09-25T22:18:43.750Z,5.90
2018-09-25T22:21:19.451Z,5.80
2018-09-25T22:23:55.276Z,5.90
2018-09-25T22:26:31.001Z,6.00
2018-09-25T22:29:06.777Z,5.90
2018-09-25T22:31:42.698Z,5.80
2018-09-25T22:34:18.968Z,5.70
2018-09-25T22:36:54.909Z,5.60
2018-09-25T22:39:30.886Z,5.80
2018-09-25T22:42:09.903Z,5.60
2018-09-25T22:44:45.505Z,5.40
2018-09-25T22:47:21.124Z,5.40
2018-09-25T22:49:56.830Z,5.70
2018-09-25T22:52:32.278Z,5.60
2018-09-25T22:55:07.997Z,5.60
2018-09-25T22:57:43.525Z,5.50
2018-09-25T23:00:18.976Z,5.20
2018-09-25T23:02:54.454Z,5.40
2018-09-25T23:05:30.986Z,5.40
2018-09-25T23:08:07.026Z,5.50
2018-09-25T23:10:42.585Z,5.60
2018-09-25T23:13:18.089Z,5.60
2018-09-25T23:15:53.663Z,5.50
2018-09-25T23:18:29.340Z,5.60
2018-09-25T23:21:05.004Z,5.70
2018-09-25T23:23:41.060Z,5.60
2018-09-25T23:26:16.742Z,5.30
2018-09-25T23:28:53.339Z,5.20
2018-09-25T23:31:28.914Z,5.40
2018-09-25T23:34:04.563Z,5.50
2018-09-25T23:36:40.598Z,5.30
2018-09-25T23:39:19.861Z,5.30
2018-09-25T23:43:56.952Z,5.20
2018-09-25T23:46:39.247Z,5.10
2018-09-25T23:49:14.733Z,5.20
2018-09-25T23:51:50.391Z,5.30
2018-09-25T23:54:24.630Z,5.30
2018-09-25T23:57:00.742Z,5.00
2018-09-25T23:59:34.176Z,5.10
